createdAt,value
2023-05-09T00:00:37.059Z,28.14
2023-05-09T00:05:38.721Z,27.96
2023-05-09T00:10:40.323Z,28.49
2023-05-09T00:15:41.706Z,28.03
2023-05-09T00:20:44.111Z,28.19
2023-05-09T00:25:45.534Z,28.24
2023-05-09T00:30:46.940Z,28.00
2023-05-09T00:35:48.305Z,27.76
2023-05-09T00:40:49.680Z,27.93
2023-05-09T00:45:51.077Z,27.78
2023-05-09T00:50:52.953Z,27.83
2023-05-09T00:55:55.674Z,27.75
2023-05-09T01:00:57.507Z,27.78
2023-05-09T01:06:17.623Z,27.99
2023-05-09T01:11:53.659Z,27.80
2023-05-09T01:17:35.035Z,27.26
2023-05-09T01:22:36.593Z,27.53
2023-05-09T01:28:02.714Z,27.32
2023-05-09T01:33:06.596Z,27.28
2023-05-09T01:38:12.728Z,27.21
2023-05-09T01:43:14.939Z,27.07
2023-05-09T01:48:16.326Z,27.27
2023-05-09T01:53:17.725Z,27.16
2023-05-09T01:58:19.125Z,26.89
2023-05-09T02:03:21.104Z,27.09
2023-05-09T02:08:22.515Z,27.00
2023-05-09T02:13:24.090Z,26.84
2023-05-09T02:18:25.508Z,27.05
2023-05-09T02:23:26.894Z,26.96
2023-05-09T02:28:28.308Z,26.98
2023-05-09T02:33:29.714Z,26.98
2023-05-09T02:38:31.286Z,26.68
2023-05-09T02:43:32.671Z,26.73
2023-05-09T02:48:34.326Z,26.66
2023-05-09T02:53:35.705Z,26.73
2023-05-09T02:58:37.136Z,26.53
2023-05-09T03:03:38.618Z,26.59
2023-05-09T03:08:40.170Z,26.60
2023-05-09T03:13:41.638Z,26.51
2023-05-09T03:18:43.038Z,26.36
2023-05-09T03:23:44.519Z,26.42
2023-05-09T03:28:46.258Z,26.37
2023-05-09T03:33:47.688Z,26.17
2023-05-09T03:38:49.077Z,26.27
2023-05-09T03:43:50.608Z,26.14
2023-05-09T03:48:51.978Z,26.14
2023-05-09T03:53:53.401Z,26.21
2023-05-09T03:58:54.813Z,26.03
2023-05-09T04:03:57.490Z,26.13
2023-05-09T04:08:58.908Z,26.03
2023-05-09T04:14:00.278Z,26.09
2023-05-09T04:19:01.722Z,26.13
2023-05-09T04:24:03.173Z,26.12
2023-05-09T04:29:04.576Z,26.00
2023-05-09T04:34:06.424Z,26.15
2023-05-09T04:39:10.900Z,26.11
2023-05-09T04:44:12.310Z,25.91
2023-05-09T04:49:13.714Z,26.08
2023-05-09T04:54:15.085Z,26.05
2023-05-09T04:59:16.498Z,25.79
2023-05-09T05:04:17.925Z,25.96
2023-05-09T05:09:19.331Z,25.93
2023-05-09T05:14:20.698Z,25.84
2023-05-09T05:19:22.132Z,26.04
2023-05-09T05:24:23.544Z,26.03
2023-05-09T05:29:24.919Z,25.61
2023-05-09T05:34:26.670Z,25.86
2023-05-09T05:39:28.109Z,25.79
2023-05-09T05:44:29.499Z,25.88
2023-05-09T05:49:30.898Z,25.70
2023-05-09T05:54:32.289Z,25.91
2023-05-09T05:59:33.652Z,25.87
2023-05-09T06:04:35.039Z,25.87
2023-05-09T06:09:36.435Z,25.62
2023-05-09T06:14:37.935Z,25.43
2023-05-09T06:19:39.347Z,25.17
2023-05-09T06:24:40.719Z,25.21
2023-05-09T06:29:42.122Z,25.02
2023-05-09T06:34:43.598Z,25.16
2023-05-09T06:39:44.988Z,25.34
2023-05-09T06:44:46.397Z,25.46
2023-05-09T06:49:47.824Z,25.21
2023-05-09T06:54:49.239Z,25.03
2023-05-09T06:59:50.664Z,24.91
2023-05-09T07:04:52.127Z,24.83
2023-05-09T07:10:00.645Z,24.90
2023-05-09T07:15:09.602Z,24.63
2023-05-09T07:20:11.097Z,24.73
2023-05-09T07:25:12.477Z,25.02
2023-05-09T07:30:14.329Z,25.00
2023-05-09T07:35:16.202Z,25.42
2023-05-09T07:40:17.983Z,25.67
2023-05-09T07:45:21.982Z,25.83
2023-05-09T07:50:25.041Z,26.00
2023-05-09T07:55:26.578Z,25.84
2023-05-09T08:00:27.976Z,26.01
2023-05-09T08:05:29.353Z,26.12
2023-05-09T08:10:32.076Z,25.98
2023-05-09T08:15:33.510Z,26.22
2023-05-09T08:20:36.060Z,26.36
2023-05-09T08:25:37.758Z,26.53
2023-05-09T08:30:39.273Z,26.47
2023-05-09T08:35:40.724Z,26.38
2023-05-09T08:40:42.128Z,26.12
2023-05-09T08:45:50.271Z,26.07
2023-05-09T08:50:51.680Z,25.62
2023-05-09T08:55:53.103Z,25.47
2023-05-09T09:00:55.527Z,25.39
2023-05-09T09:05:57.011Z,25.30
2023-05-09T09:10:58.469Z,24.96
2023-05-09T09:16:00.099Z,24.52
2023-05-09T09:21:10.927Z,24.35
2023-05-09T09:26:12.465Z,24.50
2023-05-09T09:31:20.805Z,24.35
2023-05-09T09:36:29.077Z,24.33
2023-05-09T09:41:37.841Z,24.03
2023-05-09T09:46:48.707Z,24.19
2023-05-09T09:51:53.967Z,23.83
2023-05-09T09:56:56.411Z,23.81
2023-05-09T10:02:07.969Z,24.14
2023-05-09T10:07:12.794Z,24.22
2023-05-09T10:12:19.503Z,24.30
2023-05-09T10:17:21.391Z,24.61
2023-05-09T10:22:22.998Z,24.74
2023-05-09T10:27:25.930Z,24.64
2023-05-09T10:32:29.436Z,24.47
2023-05-09T10:37:31.675Z,24.29
2023-05-09T10:42:34.829Z,24.55
2023-05-09T10:47:36.315Z,24.08
2023-05-09T10:53:05.713Z,24.08
2023-05-09T10:58:33.511Z,24.09
2023-05-09T11:03:54.594Z,24.00
2023-05-09T11:08:56.024Z,23.90
2023-05-09T11:13:58.260Z,23.98
2023-05-09T11:18:59.644Z,23.86
2023-05-09T11:24:01.293Z,23.80
2023-05-09T11:29:02.817Z,23.57
2023-05-09T11:34:06.242Z,23.53
2023-05-09T11:39:09.226Z,23.41
2023-05-09T11:44:20.230Z,23.45
2023-05-09T11:49:21.611Z,23.35
2023-05-09T11:54:23.407Z,23.26
2023-05-09T11:59:24.781Z,23.28
2023-05-09T12:04:26.724Z,23.20
2023-05-09T12:09:35.197Z,23.37
2023-05-09T12:14:36.598Z,23.84
2023-05-09T12:19:37.989Z,23.42
2023-05-09T12:24:39.379Z,23.17
2023-05-09T12:29:44.062Z,23.22
2023-05-09T12:34:47.581Z,23.95
2023-05-09T12:40:02.313Z,23.69
2023-05-09T12:45:04.318Z,23.34
2023-05-09T12:50:06.467Z,23.36
2023-05-09T12:55:09.448Z,23.30
2023-05-09T13:00:12.033Z,22.95
2023-05-09T13:05:15.902Z,23.02
2023-05-09T13:10:24.049Z,22.92
2023-05-09T13:15:27.565Z,23.07
2023-05-09T13:20:29.004Z,22.92
2023-05-09T13:25:30.545Z,23.12
2023-05-09T13:30:31.983Z,22.99
2023-05-09T13:35:33.369Z,22.87
2023-05-09T13:40:35.145Z,22.84
2023-05-09T13:45:36.569Z,22.84
2023-05-09T13:50:37.996Z,23.02
2023-05-09T13:55:39.376Z,23.22
2023-05-09T14:00:41.695Z,23.25
2023-05-09T14:05:43.260Z,23.41
2023-05-09T14:10:44.631Z,23.17
2023-05-09T14:15:46.083Z,23.29
2023-05-09T14:20:47.490Z,23.49
2023-05-09T14:25:48.857Z,23.82
2023-05-09T14:30:50.266Z,23.95
2023-05-09T14:35:51.642Z,24.05
2023-05-09T14:40:53.084Z,24.11
2023-05-09T14:45:54.738Z,24.20
2023-05-09T14:50:56.857Z,24.18
2023-05-09T14:55:58.279Z,24.32
2023-05-09T15:01:01.149Z,24.57
2023-05-09T15:06:02.626Z,24.84
2023-05-09T15:11:04.002Z,24.94
2023-05-09T15:16:05.436Z,24.93
2023-05-09T15:21:06.822Z,25.23
2023-05-09T15:26:08.732Z,25.29
2023-05-09T15:31:10.173Z,25.12
2023-05-09T15:36:11.621Z,25.25
2023-05-09T15:41:13.027Z,25.53
2023-05-09T15:46:14.451Z,25.62
2023-05-09T15:51:16.250Z,25.77
2023-05-09T15:56:17.642Z,25.91
2023-05-09T16:01:19.096Z,26.09
2023-05-09T16:06:20.495Z,26.18
2023-05-09T16:11:22.249Z,26.31
2023-05-09T16:16:23.697Z,26.41
2023-05-09T16:21:28.958Z,26.58
2023-05-09T16:26:30.481Z,26.49
2023-05-09T16:31:33.331Z,26.36
2023-05-09T16:36:38.151Z,26.64
2023-05-09T16:41:40.688Z,26.60
2023-05-09T16:46:42.157Z,26.75
2023-05-09T16:51:43.896Z,26.65
2023-05-09T16:56:45.323Z,26.58
2023-05-09T17:01:47.460Z,26.58
2023-05-09T17:06:51.160Z,26.58
2023-05-09T17:11:52.547Z,26.70
2023-05-09T17:16:53.993Z,26.45
2023-05-09T17:21:55.932Z,26.53
2023-05-09T17:26:57.357Z,26.57
2023-05-09T17:32:02.144Z,26.43
2023-05-09T17:37:05.543Z,26.43
2023-05-09T17:42:07.670Z,26.49
2023-05-09T17:47:09.290Z,26.45
2023-05-09T17:52:10.662Z,26.69
2023-05-09T17:57:12.127Z,26.64
2023-05-09T18:02:13.578Z,26.81
2023-05-09T18:07:14.963Z,26.99
2023-05-09T18:12:16.336Z,26.86
2023-05-09T18:17:17.712Z,26.69
2023-05-09T18:22:20.250Z,26.71
2023-05-09T18:27:21.783Z,26.69
2023-05-09T18:32:23.171Z,26.76
2023-05-09T18:37:24.702Z,26.76
2023-05-09T18:42:26.828Z,26.78
2023-05-09T18:47:28.264Z,26.60
2023-05-09T18:52:31.666Z,26.88
2023-05-09T18:57:33.681Z,26.77
2023-05-09T19:02:35.080Z,26.91
2023-05-09T19:07:37.090Z,26.96
2023-05-09T19:12:38.515Z,27.15
2023-05-09T19:17:40.118Z,27.23
2023-05-09T19:22:45.417Z,27.32
2023-05-09T19:27:46.959Z,27.21
2023-05-09T19:32:48.494Z,27.53
2023-05-09T19:37:49.936Z,27.55
2023-05-09T19:42:51.369Z,27.46
2023-05-09T19:47:54.377Z,27.63
2023-05-09T19:52:56.935Z,27.53
2023-05-09T19:57:58.314Z,27.60
2023-05-09T20:02:59.775Z,27.79
2023-05-09T20:08:01.233Z,27.83
2023-05-09T20:13:04.216Z,27.99
2023-05-09T20:18:06.971Z,28.02
2023-05-09T20:23:08.410Z,28.07
2023-05-09T20:28:11.716Z,28.18
2023-05-09T20:33:13.098Z,27.98
2023-05-09T20:38:14.558Z,28.24
2023-05-09T20:43:16.029Z,28.45
2023-05-09T20:48:17.416Z,28.39
2023-05-09T20:53:18.857Z,28.28
2023-05-09T20:58:20.300Z,28.32
2023-05-09T21:03:21.785Z,28.45
2023-05-09T21:08:23.224Z,28.40
2023-05-09T21:13:24.721Z,28.50
2023-05-09T21:18:27.291Z,28.50
2023-05-09T21:23:28.706Z,28.36
2023-05-09T21:28:30.295Z,28.41
2023-05-09T21:33:31.700Z,28.29
2023-05-09T21:38:33.068Z,28.35
2023-05-09T21:43:34.481Z,28.34
2023-05-09T21:48:35.933Z,28.61
2023-05-09T21:53:37.353Z,28.78
2023-05-09T21:58:38.847Z,28.49
2023-05-09T22:03:40.321Z,28.51
2023-05-09T22:08:41.825Z,28.65
2023-05-09T22:13:43.408Z,28.50
2023-05-09T22:18:44.794Z,28.61
2023-05-09T22:23:46.181Z,28.69
2023-05-09T22:28:48.604Z,28.79
2023-05-09T22:33:49.975Z,28.77
2023-05-09T22:38:51.527Z,28.60
2023-05-09T22:43:52.993Z,28.70
2023-05-09T22:48:54.375Z,28.73
2023-05-09T22:53:55.764Z,28.80
2023-05-09T22:58:57.162Z,28.84
2023-05-09T23:03:58.540Z,28.75
2023-05-09T23:09:00.226Z,28.79
2023-05-09T23:14:02.432Z,28.81
2023-05-09T23:19:04.276Z,28.89
2023-05-09T23:24:06.034Z,28.74
2023-05-09T23:29:07.412Z,28.85
2023-05-09T23:34:08.814Z,28.85
2023-05-09T23:39:10.332Z,28.75
2023-05-09T23:44:12.218Z,28.86
2023-05-09T23:49:14.470Z,28.65
2023-05-09T23:54:16.431Z,28.69
2023-05-09T23:59:17.803Z,28.58
